sensor_id;sensor_type;location;lat;lon;timestamp;pressure;altitude;pressure_sealevel;temperature;humidity
12172;BME280;6149;52.418;13.668;2023-03-30T00:00:07;100700.50;;;8.17;100.00
12172;BME280;6149;52.418;13.668;2023-03-30T00:02:45;100697.97;;;8.16;100.00
12172;BME280;6149;52.418;13.668;2023-03-30T00:05:13;100696.25;;;8.15;100.00
12172;BME280;6149;52.418;13.668;2023-03-30T00:07:41;100698.09;;;8.13;100.00
12172;BME280;6149;52.418;13.668;2023-03-30T00:10:10;100689.38;;;8.11;100.00
12172;BME280;6149;52.418;13.668;2023-03-30T00:12:39;100693.84;;;8.09;100.00
12172;BME280;6149;52.418;13.668;2023-03-30T00:15:09;100684.25;;;8.08;100.00
12172;BME280;6149;52.418;13.668;2023-03-30T00:17:37;100691.28;;;8.07;100.00
12172;BME280;6149;52.418;13.668;2023-03-30T00:20:07;100686.16;;;8.04;100.00
12172;BME280;6149;52.418;13.668;2023-03-30T00:22:36;100685.34;;;8.02;100.00
12172;BME280;6149;52.418;13.668;2023-03-30T00:25:04;100683.56;;;8.02;100.00
12172;BME280;6149;52.418;13.668;2023-03-30T00:27:33;100681.00;;;8.01;100.00
12172;BME280;6149;52.418;13.668;2023-03-30T00:30:00;100680.09;;;8.02;100.00
12172;BME280;6149;52.418;13.668;2023-03-30T00:32:27;100673.09;;;8.01;100.00
12172;BME280;6149;52.418;13.668;2023-03-30T00:34:53;100674.03;;;8.00;100.00
12172;BME280;6149;52.418;13.668;2023-03-30T00:37:22;100670.53;;;7.99;100.00
12172;BME280;6149;52.418;13.668;2023-03-30T00:39:50;100669.63;;;8.00;100.00
12172;BME280;6149;52.418;13.668;2023-03-30T00:42:17;100664.34;;;8.00;100.00
12172;BME280;6149;52.418;13.668;2023-03-30T00:45:05;100661.78;;;7.99;100.00
12172;BME280;6149;52.418;13.668;2023-03-30T00:47:40;100662.63;;;7.99;100.00
12172;BME280;6149;52.418;13.668;2023-03-30T00:50:09;100650.38;;;7.98;100.00
12172;BME280;6149;52.418;13.668;2023-03-30T00:52:38;100650.50;;;7.95;100.00
12172;BME280;6149;52.418;13.668;2023-03-30T00:55:06;100651.38;;;7.96;100.00
12172;BME280;6149;52.418;13.668;2023-03-30T00:57:38;100641.81;;;7.93;100.00
12172;BME280;6149;52.418;13.668;2023-03-30T01:00:07;100639.19;;;7.93;100.00
12172;BME280;6149;52.418;13.668;2023-03-30T01:02:39;100629.56;;;7.92;100.00
12172;BME280;6149;52.418;13.668;2023-03-30T01:05:08;100627.88;;;7.91;100.00
12172;BME280;6149;52.418;13.668;2023-03-30T01:07:39;100624.44;;;7.89;100.00
12172;BME280;6149;52.418;13.668;2023-03-30T01:10:08;100617.41;;;7.90;100.00
12172;BME280;6149;52.418;13.668;2023-03-30T01:12:36;100609.63;;;7.87;100.00
12172;BME280;6149;52.418;13.668;2023-03-30T01:15:05;100604.41;;;7.85;100.00
12172;BME280;6149;52.418;13.668;2023-03-30T01:17:37;100602.78;;;7.83;100.00
12172;BME280;6149;52.418;13.668;2023-03-30T01:20:28;100592.00;;;7.89;100.00
12172;BME280;6149;52.418;13.668;2023-03-30T01:23:20;100582.56;;;7.83;100.00
12172;BME280;6149;52.418;13.668;2023-03-30T01:26:26;100583.66;;;7.79;100.00
12172;BME280;6149;52.418;13.668;2023-03-30T01:29:06;100575.81;;;7.78;100.00
12172;BME280;6149;52.418;13.668;2023-03-30T01:32:15;100572.38;;;7.76;100.00
12172;BME280;6149;52.418;13.668;2023-03-30T01:35:08;100568.97;;;7.74;100.00
12172;BME280;6149;52.418;13.668;2023-03-30T01:38:11;100578.63;;;7.73;100.00
12172;BME280;6149;52.418;13.668;2023-03-30T01:40:54;100570.81;;;7.71;100.00
12172;BME280;6149;52.418;13.668;2023-03-30T01:43:33;100553.31;;;7.70;100.00
12172;BME280;6149;52.418;13.668;2023-03-30T01:46:09;100549.03;;;7.68;100.00
12172;BME280;6149;52.418;13.668;2023-03-30T01:48:44;100542.78;;;7.70;100.00
12172;BME280;6149;52.418;13.668;2023-03-30T01:51:18;100540.22;;;7.69;100.00
12172;BME280;6149;52.418;13.668;2023-03-30T01:53:50;100536.84;;;7.65;100.00
12172;BME280;6149;52.418;13.668;2023-03-30T01:56:24;100539.53;;;7.64;100.00
12172;BME280;6149;52.418;13.668;2023-03-30T01:58:54;100519.59;;;7.58;100.00
12172;BME280;6149;52.418;13.668;2023-03-30T02:01:24;100512.63;;;7.57;100.00
12172;BME280;6149;52.418;13.668;2023-03-30T02:03:55;100502.03;;;7.59;100.00
12172;BME280;6149;52.418;13.668;2023-03-30T02:06:26;100508.16;;;7.59;100.00
12172;BME280;6149;52.418;13.668;2023-03-30T02:08:56;100512.50;;;7.60;100.00
12172;BME280;6149;52.418;13.668;2023-03-30T02:11:27;100507.28;;;7.59;100.00
12172;BME280;6149;52.418;13.668;2023-03-30T02:13:55;100517.81;;;7.59;100.00
12172;BME280;6149;52.418;13.668;2023-03-30T02:16:29;100513.34;;;7.61;100.00
12172;BME280;6149;52.418;13.668;2023-03-30T02:18:59;100504.53;;;7.62;100.00
12172;BME280;6149;52.418;13.668;2023-03-30T02:21:26;100510.66;;;7.62;100.00
12172;BME280;6149;52.418;13.668;2023-03-30T02:23:54;100522.03;;;7.63;100.00
12172;BME280;6149;52.418;13.668;2023-03-30T02:26:21;100523.81;;;7.62;100.00
12172;BME280;6149;52.418;13.668;2023-03-30T02:28:50;100512.38;;;7.63;100.00
12172;BME280;6149;52.418;13.668;2023-03-30T02:31:17;100504.59;;;7.60;100.00
12172;BME280;6149;52.418;13.668;2023-03-30T02:33:55;100499.41;;;7.59;100.00
12172;BME280;6149;52.418;13.668;2023-03-30T02:36:51;100498.53;;;7.58;100.00
12172;BME280;6149;52.418;13.668;2023-03-30T02:39:33;100493.28;;;7.58;100.00
12172;BME280;6149;52.418;13.668;2023-03-30T02:42:24;100487.09;;;7.59;100.00
12172;BME280;6149;52.418;13.668;2023-03-30T02:45:11;100487.91;;;7.61;100.00
12172;BME280;6149;52.418;13.668;2023-03-30T02:47:54;100475.47;;;7.65;100.00
12172;BME280;6149;52.418;13.668;2023-03-30T02:50:31;100475.41;;;7.66;100.00
12172;BME280;6149;52.418;13.668;2023-03-30T02:53:08;100463.94;;;7.67;100.00
12172;BME280;6149;52.418;13.668;2023-03-30T02:55:43;100459.63;;;7.66;100.00
12172;BME280;6149;52.418;13.668;2023-03-30T02:58:18;100454.41;;;7.65;100.00
12172;BME280;6149;52.418;13.668;2023-03-30T03:00:51;100453.44;;;7.67;100.00
12172;BME280;6149;52.418;13.668;2023-03-30T03:03:22;100447.25;;;7.68;100.00
12172;BME280;6149;52.418;13.668;2023-03-30T03:05:52;100451.66;;;7.68;100.00
12172;BME280;6149;52.418;13.668;2023-03-30T03:08:22;100449.09;;;7.66;100.00
12172;BME280;6149;52.418;13.668;2023-03-30T03:10:50;100448.22;;;7.66;100.00
12172;BME280;6149;52.418;13.668;2023-03-30T03:13:17;100441.25;;;7.65;100.00
12172;BME280;6149;52.418;13.668;2023-03-30T03:15:44;100441.97;;;7.68;100.00
12172;BME280;6149;52.418;13.668;2023-03-30T03:18:15;100439.28;;;7.70;100.00
12172;BME280;6149;52.418;13.668;2023-03-30T03:20:42;100430.59;;;7.68;100.00
12172;BME280;6149;52.418;13.668;2023-03-30T03:23:09;100429.75;;;7.67;100.00
12172;BME280;6149;52.418;13.668;2023-03-30T03:25:35;100428.81;;;7.68;100.00
12172;BME280;6149;52.418;13.668;2023-03-30T03:28:02;100434.88;;;7.70;100.00
12172;BME280;6149;52.418;13.668;2023-03-30T03:30:29;100432.03;;;7.75;100.00
12172;BME280;6149;52.418;13.668;2023-03-30T03:32:56;100433.81;;;7.75;100.00
12172;BME280;6149;52.418;13.668;2023-03-30T03:35:24;100426.84;;;7.74;100.00
12172;BME280;6149;52.418;13.668;2023-03-30T03:37:51;100419.03;;;7.72;100.00
12172;BME280;6149;52.418;13.668;2023-03-30T03:40:18;100416.38;;;7.72;100.00
12172;BME280;6149;52.418;13.668;2023-03-30T03:42:45;100408.28;;;7.77;100.00
12172;BME280;6149;52.418;13.668;2023-03-30T03:45:12;100411.91;;;7.74;100.00
12172;BME280;6149;52.418;13.668;2023-03-30T03:47:39;100408.41;;;7.74;100.00
12172;BME280;6149;52.418;13.668;2023-03-30T03:50:06;100408.41;;;7.74;100.00
12172;BME280;6149;52.418;13.668;2023-03-30T03:52:35;100401.44;;;7.72;100.00
12172;BME280;6149;52.418;13.668;2023-03-30T03:55:02;100387.44;;;7.72;100.00
12172;BME280;6149;52.418;13.668;2023-03-30T03:57:29;100384.94;;;7.69;100.00
12172;BME280;6149;52.418;13.668;2023-03-30T03:59:56;100384.00;;;7.70;100.00
12172;BME280;6149;52.418;13.668;2023-03-30T04:02:24;100375.28;;;7.69;100.00
12172;BME280;6149;52.418;13.668;2023-03-30T04:04:50;100367.31;;;7.71;100.00
12172;BME280;6149;52.418;13.668;2023-03-30T04:07:17;100369.00;;;7.72;100.00
12172;BME280;6149;52.418;13.668;2023-03-30T04:09:47;100363.81;;;7.70;100.00
12172;BME280;6149;52.418;13.668;2023-03-30T04:12:13;100367.25;;;7.72;100.00
12172;BME280;6149;52.418;13.668;2023-03-30T04:14:40;100360.25;;;7.71;100.00
12172;BME280;6149;52.418;13.668;2023-03-30T04:17:06;100348.69;;;7.76;100.00
12172;BME280;6149;52.418;13.668;2023-03-30T04:19:33;100341.72;;;7.75;100.00
12172;BME280;6149;52.418;13.668;2023-03-30T04:22:00;100327.69;;;7.74;100.00
12172;BME280;6149;52.418;13.668;2023-03-30T04:24:30;100328.63;;;7.73;100.00
12172;BME280;6149;52.418;13.668;2023-03-30T04:27:00;100326.06;;;7.71;100.00
12172;BME280;6149;52.418;13.668;2023-03-30T04:29:28;100322.50;;;7.72;100.00
12172;BME280;6149;52.418;13.668;2023-03-30T04:31:55;100324.34;;;7.70;100.00
12172;BME280;6149;52.418;13.668;2023-03-30T04:34:27;100329.75;;;7.67;100.00
12172;BME280;6149;52.418;13.668;2023-03-30T04:36:55;100319.22;;;7.67;100.00
12172;BME280;6149;52.418;13.668;2023-03-30T04:39:23;100328.03;;;7.66;100.00
12172;BME280;6149;52.418;13.668;2023-03-30T04:41:54;100325.47;;;7.65;100.00
12172;BME280;6149;52.418;13.668;2023-03-30T04:44:22;100318.50;;;7.64;100.00
12172;BME280;6149;52.418;13.668;2023-03-30T04:46:48;100322.00;;;7.64;100.00
12172;BME280;6149;52.418;13.668;2023-03-30T04:49:15;100319.34;;;7.64;100.00
12172;BME280;6149;52.418;13.668;2023-03-30T04:51:42;100319.34;;;7.64;100.00
12172;BME280;6149;52.418;13.668;2023-03-30T04:54:10;100323.75;;;7.64;100.00
12172;BME280;6149;52.418;13.668;2023-03-30T04:56:38;100319.28;;;7.66;100.00
12172;BME280;6149;52.418;13.668;2023-03-30T04:59:06;100315.66;;;7.68;100.00
12172;BME280;6149;52.418;13.668;2023-03-30T05:01:35;100313.97;;;7.67;100.00
12172;BME280;6149;52.418;13.668;2023-03-30T05:04:01;100313.97;;;7.67;100.00
12172;BME280;6149;52.418;13.668;2023-03-30T05:06:28;100324.47;;;7.67;100.00
12172;BME280;6149;52.418;13.668;2023-03-30T05:08:56;100323.56;;;7.68;100.00
12172;BME280;6149;52.418;13.668;2023-03-30T05:11:24;100326.91;;;7.72;100.00
12172;BME280;6149;52.418;13.668;2023-03-30T05:13:52;100320.72;;;7.73;100.00
12172;BME280;6149;52.418;13.668;2023-03-30T05:16:20;100321.44;;;7.77;100.00
12172;BME280;6149;52.418;13.668;2023-03-30T05:18:49;100307.91;;;7.84;100.00
12172;BME280;6149;52.418;13.668;2023-03-30T05:21:15;100300.50;;;7.92;100.00
12172;BME280;6149;52.418;13.668;2023-03-30T05:23:42;100303.13;;;7.92;100.00
12172;BME280;6149;52.418;13.668;2023-03-30T05:26:09;100312.53;;;7.98;100.00
12172;BME280;6149;52.418;13.668;2023-03-30T05:28:35;100291.81;;;8.09;100.00
12172;BME280;6149;52.418;13.668;2023-03-30T05:31:02;100275.09;;;8.10;100.00
12172;BME280;6149;52.418;13.668;2023-03-30T05:33:30;100266.47;;;8.07;100.00
12172;BME280;6149;52.418;13.668;2023-03-30T05:35:58;100263.56;;;8.13;100.00
12172;BME280;6149;52.418;13.668;2023-03-30T05:38:25;100262.69;;;8.12;100.00
12172;BME280;6149;52.418;13.668;2023-03-30T05:40:53;100249.06;;;8.21;100.00
12172;BME280;6149;52.418;13.668;2023-03-30T05:43:20;100251.53;;;8.24;100.00
12172;BME280;6149;52.418;13.668;2023-03-30T05:45:48;100256.81;;;8.24;100.00
12172;BME280;6149;52.418;13.668;2023-03-30T05:48:17;100248.97;;;8.23;100.00
12172;BME280;6149;52.418;13.668;2023-03-30T05:50:46;100257.88;;;8.20;100.00
12172;BME280;6149;52.418;13.668;2023-03-30T05:53:14;100263.16;;;8.20;100.00
12172;BME280;6149;52.418;13.668;2023-03-30T05:55:42;100258.81;;;8.19;100.00
12172;BME280;6149;52.418;13.668;2023-03-30T05:58:10;100250.63;;;8.25;100.00
12172;BME280;6149;52.418;13.668;2023-03-30T06:00:37;100255.97;;;8.24;100.00
12172;BME280;6149;52.418;13.668;2023-03-30T06:03:05;100252.31;;;8.26;100.00
12172;BME280;6149;52.418;13.668;2023-03-30T06:05:33;100250.41;;;8.30;100.00
12172;BME280;6149;52.418;13.668;2023-03-30T06:08:00;100249.53;;;8.29;100.00
12172;BME280;6149;52.418;13.668;2023-03-30T06:10:29;100251.13;;;8.33;100.00
12172;BME280;6149;52.418;13.668;2023-03-30T06:12:56;100249.75;;;8.44;100.00
12172;BME280;6149;52.418;13.668;2023-03-30T06:15:23;100231.38;;;8.42;100.00
12172;BME280;6149;52.418;13.668;2023-03-30T06:17:49;100220.78;;;8.44;100.00
12172;BME280;6149;52.418;13.668;2023-03-30T06:20:17;100216.44;;;8.43;100.00
12172;BME280;6149;52.418;13.668;2023-03-30T06:22:45;100224.19;;;8.46;100.00
12172;BME280;6149;52.418;13.668;2023-03-30T06:25:13;100222.00;;;8.54;100.00
12172;BME280;6149;52.418;13.668;2023-03-30T06:27:41;100219.28;;;8.55;100.00
12172;BME280;6149;52.418;13.668;2023-03-30T06:30:09;100213.25;;;8.53;100.00
12172;BME280;6149;52.418;13.668;2023-03-30T06:32:36;100216.56;;;8.57;100.00
12172;BME280;6149;52.418;13.668;2023-03-30T06:35:04;100206.78;;;8.59;100.00
12172;BME280;6149;52.418;13.668;2023-03-30T06:37:31;100201.53;;;8.59;100.00
12172;BME280;6149;52.418;13.668;2023-03-30T06:40:00;100198.56;;;8.65;100.00
12172;BME280;6149;52.418;13.668;2023-03-30T06:42:31;100206.16;;;8.71;100.00
12172;BME280;6149;52.418;13.668;2023-03-30T06:45:00;100215.56;;;8.77;100.00
12172;BME280;6149;52.418;13.668;2023-03-30T06:47:27;100210.81;;;8.83;100.00
12172;BME280;6149;52.418;13.668;2023-03-30T06:49:54;100222.06;;;8.87;100.00
12172;BME280;6149;52.418;13.668;2023-03-30T06:52:20;100217.56;;;8.89;100.00
12172;BME280;6149;52.418;13.668;2023-03-30T06:54:47;100205.97;;;8.91;100.00
12172;BME280;6149;52.418;13.668;2023-03-30T06:57:14;100204.78;;;8.97;100.00
12172;BME280;6149;52.418;13.668;2023-03-30T06:59:40;100221.38;;;8.99;100.00
12172;BME280;6149;52.418;13.668;2023-03-30T07:02:11;100202.78;;;9.02;100.00
12172;BME280;6149;52.418;13.668;2023-03-30T07:04:38;100199.72;;;9.10;100.00
12172;BME280;6149;52.418;13.668;2023-03-30T07:07:05;100207.56;;;9.11;100.00
12172;BME280;6149;52.418;13.668;2023-03-30T07:09:32;100202.13;;;9.14;100.00
12172;BME280;6149;52.418;13.668;2023-03-30T07:11:59;100194.97;;;9.16;100.00
12172;BME280;6149;52.418;13.668;2023-03-30T07:14:25;100195.44;;;9.24;100.00
12172;BME280;6149;52.418;13.668;2023-03-30T07:16:52;100193.47;;;9.28;100.00
12172;BME280;6149;52.418;13.668;2023-03-30T07:19:22;100188.00;;;9.31;100.00
12172;BME280;6149;52.418;13.668;2023-03-30T07:21:48;100187.50;;;9.40;100.00
12172;BME280;6149;52.418;13.668;2023-03-30T07:24:16;100175.75;;;9.46;100.00
12172;BME280;6149;52.418;13.668;2023-03-30T07:26:42;100164.97;;;9.50;100.00
12172;BME280;6149;52.418;13.668;2023-03-30T07:29:09;100165.66;;;9.54;100.00
12172;BME280;6149;52.418;13.668;2023-03-30T07:31:36;100164.28;;;9.62;100.00
12172;BME280;6149;52.418;13.668;2023-03-30T07:34:02;100164.00;;;9.67;100.00
12172;BME280;6149;52.418;13.668;2023-03-30T07:36:30;100161.69;;;9.77;100.00
12172;BME280;6149;52.418;13.668;2023-03-30T07:38:57;100158.00;;;9.95;100.00
12172;BME280;6149;52.418;13.668;2023-03-30T07:41:24;100153.41;;;9.98;100.00
12172;BME280;6149;52.418;13.668;2023-03-30T07:43:50;100147.13;;;10.15;100.00
12172;BME280;6149;52.418;13.668;2023-03-30T07:46:17;100151.91;;;10.24;100.00
12172;BME280;6149;52.418;13.668;2023-03-30T07:48:43;100153.84;;;10.51;100.00
12172;BME280;6149;52.418;13.668;2023-03-30T07:51:11;100154.16;;;10.75;100.00
12172;BME280;6149;52.418;13.668;2023-03-30T07:53:40;100156.63;;;11.06;100.00
12172;BME280;6149;52.418;13.668;2023-03-30T07:56:07;100152.13;;;11.21;100.00
12172;BME280;6149;52.418;13.668;2023-03-30T07:58:35;100141.53;;;11.35;100.00
12172;BME280;6149;52.418;13.668;2023-03-30T08:01:02;100132.50;;;11.52;100.00
12172;BME280;6149;52.418;13.668;2023-03-30T08:03:29;100135.84;;;11.68;100.00
12172;BME280;6149;52.418;13.668;2023-03-30T08:05:58;100137.25;;;12.00;100.00
12172;BME280;6149;52.418;13.668;2023-03-30T08:08:28;100137.84;;;12.18;97.75
12172;BME280;6149;52.418;13.668;2023-03-30T08:10:56;100141.16;;;12.34;98.22
12172;BME280;6149;52.418;13.668;2023-03-30T08:13:23;100148.06;;;12.50;97.06
12172;BME280;6149;52.418;13.668;2023-03-30T08:15:50;100144.03;;;12.69;94.99
12172;BME280;6149;52.418;13.668;2023-03-30T08:18:18;100139.97;;;13.02;94.04
12172;BME280;6149;52.418;13.668;2023-03-30T08:20:48;100132.53;;;13.07;92.67
12172;BME280;6149;52.418;13.668;2023-03-30T08:23:16;100120.66;;;13.25;91.45
12172;BME280;6149;52.418;13.668;2023-03-30T08:25:43;100121.00;;;13.45;92.16
12172;BME280;6149;52.418;13.668;2023-03-30T08:28:13;100119.09;;;13.70;88.43
12172;BME280;6149;52.418;13.668;2023-03-30T08:30:40;100120.25;;;13.90;87.67
12172;BME280;6149;52.418;13.668;2023-03-30T08:33:06;100122.88;;;14.03;86.21
12172;BME280;6149;52.418;13.668;2023-03-30T08:35:34;100118.53;;;14.13;84.40
12172;BME280;6149;52.418;13.668;2023-03-30T08:38:00;100114.56;;;14.19;85.60
12172;BME280;6149;52.418;13.668;2023-03-30T08:40:27;100107.41;;;14.54;86.03
12172;BME280;6149;52.418;13.668;2023-03-30T08:43:09;100111.66;;;14.68;84.22
12172;BME280;6149;52.418;13.668;2023-03-30T08:45:50;100107.31;;;15.00;80.57
12172;BME280;6149;52.418;13.668;2023-03-30T08:48:19;100101.63;;;15.16;78.13
12172;BME280;6149;52.418;13.668;2023-03-30T08:50:52;100101.75;;;15.15;77.50
12172;BME280;6149;52.418;13.668;2023-03-30T08:53:23;100099.47;;;15.53;77.56
12172;BME280;6149;52.418;13.668;2023-03-30T08:55:52;100112.41;;;15.69;77.71
12172;BME280;6149;52.418;13.668;2023-03-30T08:58:31;100112.81;;;15.96;74.12
12172;BME280;6149;52.418;13.668;2023-03-30T09:01:10;100110.75;;;16.21;72.83
12172;BME280;6149;52.418;13.668;2023-03-30T09:03:45;100122.06;;;16.13;71.76
12172;BME280;6149;52.418;13.668;2023-03-30T09:06:29;100112.22;;;15.93;71.69
12172;BME280;6149;52.418;13.668;2023-03-30T09:09:07;100116.25;;;16.08;73.37
12172;BME280;6149;52.418;13.668;2023-03-30T09:11:37;100098.03;;;16.13;70.55
12172;BME280;6149;52.418;13.668;2023-03-30T09:14:13;100089.66;;;16.18;74.15
12172;BME280;6149;52.418;13.668;2023-03-30T09:16:45;100093.91;;;16.20;70.68
12172;BME280;6149;52.418;13.668;2023-03-30T09:19:21;100100.47;;;16.16;71.07
12172;BME280;6149;52.418;13.668;2023-03-30T09:21:52;100103.72;;;16.20;73.69
12172;BME280;6149;52.418;13.668;2023-03-30T09:24:23;100107.28;;;16.09;72.60
12172;BME280;6149;52.418;13.668;2023-03-30T09:26:57;100101.44;;;16.15;72.44
12172;BME280;6149;52.418;13.668;2023-03-30T09:29:30;100105.53;;;16.19;74.07
12172;BME280;6149;52.418;13.668;2023-03-30T09:32:02;100103.25;;;16.35;71.60
12172;BME280;6149;52.418;13.668;2023-03-30T09:34:34;100093.41;;;16.36;72.67
12172;BME280;6149;52.418;13.668;2023-03-30T09:37:08;100087.63;;;16.52;73.22
12172;BME280;6149;52.418;13.668;2023-03-30T09:39:37;100086.84;;;16.61;72.56
12172;BME280;6149;52.418;13.668;2023-03-30T09:42:17;100097.88;;;16.67;70.73
12172;BME280;6149;52.418;13.668;2023-03-30T09:44:51;100099.59;;;16.57;71.57
12172;BME280;6149;52.418;13.668;2023-03-30T09:47:24;100091.69;;;16.67;71.72
12172;BME280;6149;52.418;13.668;2023-03-30T09:49:57;100101.38;;;16.68;71.63
12172;BME280;6149;52.418;13.668;2023-03-30T09:52:25;100103.31;;;16.45;72.04
12172;BME280;6149;52.418;13.668;2023-03-30T09:54:52;100102.59;;;16.43;71.70
12172;BME280;6149;52.418;13.668;2023-03-30T09:57:25;100105.25;;;16.43;71.82
12172;BME280;6149;52.418;13.668;2023-03-30T09:59:55;100104.31;;;16.23;73.74
12172;BME280;6149;52.418;13.668;2023-03-30T10:02:24;100090.00;;;16.24;73.62
12172;BME280;6149;52.418;13.668;2023-03-30T10:05:01;100103.84;;;16.18;73.36
12172;BME280;6149;52.418;13.668;2023-03-30T10:07:34;100102.03;;;16.19;73.92
12172;BME280;6149;52.418;13.668;2023-03-30T10:10:14;100107.75;;;16.14;73.17
12172;BME280;6149;52.418;13.668;2023-03-30T10:12:48;100096.34;;;16.12;73.00
12172;BME280;6149;52.418;13.668;2023-03-30T10:15:17;100095.56;;;16.00;73.58
12172;BME280;6149;52.418;13.668;2023-03-30T10:17:47;100097.06;;;15.93;74.77
12172;BME280;6149;52.418;13.668;2023-03-30T10:20:22;100102.59;;;16.01;74.56
12172;BME280;6149;52.418;13.668;2023-03-30T10:22:53;100097.13;;;16.03;75.79
12172;BME280;6149;52.418;13.668;2023-03-30T10:25:22;100114.28;;;15.89;75.07
12172;BME280;6149;52.418;13.668;2023-03-30T10:27:54;100109.34;;;15.85;74.63
12172;BME280;6149;52.418;13.668;2023-03-30T10:30:25;100115.69;;;15.73;75.37
12172;BME280;6149;52.418;13.668;2023-03-30T10:32:55;100114.50;;;15.54;76.08
12172;BME280;6149;52.418;13.668;2023-03-30T10:35:25;100105.44;;;15.46;76.75
12172;BME280;6149;52.418;13.668;2023-03-30T10:37:54;100105.44;;;15.46;77.68
12172;BME280;6149;52.418;13.668;2023-03-30T10:40:26;100103.13;;;15.52;79.13
12172;BME280;6149;52.418;13.668;2023-03-30T10:42:59;100104.13;;;15.29;78.45
12172;BME280;6149;52.418;13.668;2023-03-30T10:45:33;100098.44;;;15.22;80.57
12172;BME280;6149;52.418;13.668;2023-03-30T10:48:19;100098.31;;;15.24;79.45
12172;BME280;6149;52.418;13.668;2023-03-30T10:50:57;100091.56;;;15.20;80.55
12172;BME280;6149;52.418;13.668;2023-03-30T10:53:37;100095.19;;;15.19;82.37
12172;BME280;6149;52.418;13.668;2023-03-30T10:56:20;100086.91;;;15.33;83.08
12172;BME280;6149;52.418;13.668;2023-03-30T10:59:14;100082.09;;;15.27;83.84
12172;BME280;6149;52.418;13.668;2023-03-30T11:05:09;100087.16;;;15.41;82.83
12172;BME280;6149;52.418;13.668;2023-03-30T11:07:42;100081.72;;;15.31;82.41
12172;BME280;6149;52.418;13.668;2023-03-30T11:10:16;100077.72;;;15.37;82.45
12172;BME280;6149;52.418;13.668;2023-03-30T11:12:50;100080.50;;;15.35;83.50
12172;BME280;6149;52.418;13.668;2023-03-30T11:15:23;100088.09;;;15.51;82.79
12172;BME280;6149;52.418;13.668;2023-03-30T11:18:01;100082.41;;;15.56;82.22
12172;BME280;6149;52.418;13.668;2023-03-30T11:20:34;100082.91;;;15.50;82.47
12172;BME280;6149;52.418;13.668;2023-03-30T11:23:16;100085.56;;;15.50;83.74
12172;BME280;6149;52.418;13.668;2023-03-30T11:25:52;100084.47;;;15.52;82.92
12172;BME280;6149;52.418;13.668;2023-03-30T11:28:39;100078.91;;;15.44;82.61
12172;BME280;6149;52.418;13.668;2023-03-30T11:31:25;100075.88;;;15.49;82.53
12172;BME280;6149;52.418;13.668;2023-03-30T11:34:03;100068.13;;;15.57;83.71
12172;BME280;6149;52.418;13.668;2023-03-30T11:36:40;100073.34;;;15.58;83.97
12172;BME280;6149;52.418;13.668;2023-03-30T11:39:13;100072.56;;;15.67;82.80
12172;BME280;6149;52.418;13.668;2023-03-30T11:41:44;100076.19;;;15.66;83.10
12172;BME280;6149;52.418;13.668;2023-03-30T11:44:14;100073.28;;;15.69;82.25
12172;BME280;6149;52.418;13.668;2023-03-30T11:46:46;100068.19;;;15.66;82.38
12172;BME280;6149;52.418;13.668;2023-03-30T11:49:26;100063.59;;;15.68;83.66
12172;BME280;6149;52.418;13.668;2023-03-30T11:52:07;100064.78;;;15.76;82.74
12172;BME280;6149;52.418;13.668;2023-03-30T11:54:54;100056.84;;;15.85;82.48
12172;BME280;6149;52.418;13.668;2023-03-30T11:57:36;100058.63;;;15.96;81.82
12172;BME280;6149;52.418;13.668;2023-03-30T12:00:20;100052.97;;;15.89;82.93
12172;BME280;6149;52.418;13.668;2023-03-30T12:02:58;100032.25;;;16.02;82.25
12172;BME280;6149;52.418;13.668;2023-03-30T12:05:34;100025.25;;;16.22;81.50
12172;BME280;6149;52.418;13.668;2023-03-30T12:08:10;100016.66;;;16.19;82.15
12172;BME280;6149;52.418;13.668;2023-03-30T12:10:48;100010.59;;;16.17;81.65
12172;BME280;6149;52.418;13.668;2023-03-30T12:13:17;100006.44;;;16.24;81.75
12172;BME280;6149;52.418;13.668;2023-03-30T12:15:49;100000.03;;;16.36;82.54
12172;BME280;6149;52.418;13.668;2023-03-30T12:18:27;99992.66;;;16.49;80.60
12172;BME280;6149;52.418;13.668;2023-03-30T12:21:11;99984.88;;;16.67;80.74
12172;BME280;6149;52.418;13.668;2023-03-30T12:23:50;99990.84;;;16.90;80.61
12172;BME280;6149;52.418;13.668;2023-03-30T12:26:25;99981.72;;;17.12;80.51
12172;BME280;6149;52.418;13.668;2023-03-30T12:28:57;99966.69;;;17.49;77.77
12172;BME280;6149;52.418;13.668;2023-03-30T12:31:51;99965.00;;;17.58;75.81
12172;BME280;6149;52.418;13.668;2023-03-30T12:34:33;99963.19;;;17.58;74.63
12172;BME280;6149;52.418;13.668;2023-03-30T12:37:04;99965.19;;;17.76;75.29
12172;BME280;6149;52.418;13.668;2023-03-30T12:39:39;99955.69;;;17.91;73.51
12172;BME280;6149;52.418;13.668;2023-03-30T12:42:15;99947.09;;;17.97;72.78
12172;BME280;6149;52.418;13.668;2023-03-30T12:45:03;99947.59;;;18.20;74.20
12172;BME280;6149;52.418;13.668;2023-03-30T12:47:52;99938.88;;;18.18;72.51
12172;BME280;6149;52.418;13.668;2023-03-30T12:50:30;99925.44;;;18.27;71.91
12172;BME280;6149;52.418;13.668;2023-03-30T12:53:20;99915.41;;;18.39;70.61
12172;BME280;6149;52.418;13.668;2023-03-30T12:56:03;99904.84;;;18.37;69.79
12172;BME280;6149;52.418;13.668;2023-03-30T12:58:52;99919.91;;;18.38;70.09
12172;BME280;6149;52.418;13.668;2023-03-30T13:01:39;99922.72;;;18.37;68.82
12172;BME280;6149;52.418;13.668;2023-03-30T13:04:12;99910.72;;;18.14;69.42
12172;BME280;6149;52.418;13.668;2023-03-30T13:06:47;99892.88;;;18.04;70.77
12172;BME280;6149;52.418;13.668;2023-03-30T13:09:35;99900.06;;;18.04;70.11
12172;BME280;6149;52.418;13.668;2023-03-30T13:12:25;99883.75;;;17.97;69.45
12172;BME280;6149;52.418;13.668;2023-03-30T13:14:58;99880.91;;;17.99;70.41
12172;BME280;6149;52.418;13.668;2023-03-30T13:17:27;99873.56;;;18.11;71.35